sensor_id;sensor_type;location;lat;lon;timestamp;temperature;humidity
32147;DHT22;32190;49.112;8.598;2022-09-20T00:00:21;15.40;57.20
32147;DHT22;32190;49.112;8.598;2022-09-20T00:06:14;15.30;57.40
32147;DHT22;32190;49.112;8.598;2022-09-20T00:12:05;15.40;57.60
32147;DHT22;32190;49.112;8.598;2022-09-20T00:17:56;15.40;57.70
32147;DHT22;32190;49.112;8.598;2022-09-20T00:23:47;15.40;57.70
32147;DHT22;32190;49.112;8.598;2022-09-20T00:29:38;15.40;57.90
32147;DHT22;32190;49.112;8.598;2022-09-20T00:35:31;15.40;58.00
32147;DHT22;32190;49.112;8.598;2022-09-20T00:41:22;15.30;58.50
32147;DHT22;32190;49.112;8.598;2022-09-20T00:53:48;15.20;58.50
32147;DHT22;32190;49.112;8.598;2022-09-20T00:59:42;15.20;58.40
32147;DHT22;32190;49.112;8.598;2022-09-20T01:05:35;15.20;58.20
32147;DHT22;32190;49.112;8.598;2022-09-20T01:11:28;15.20;58.20
32147;DHT22;32190;49.112;8.598;2022-09-20T01:17:22;15.20;58.20
32147;DHT22;32190;49.112;8.598;2022-09-20T01:35:26;15.10;58.50
32147;DHT22;32190;49.112;8.598;2022-09-20T01:41:27;15.10;58.50
32147;DHT22;32190;49.112;8.598;2022-09-20T02:00:18;15.20;59.00
32147;DHT22;32190;49.112;8.598;2022-09-20T02:12:55;15.20;59.20
32147;DHT22;32190;49.112;8.598;2022-09-20T02:31:10;15.10;59.00
32147;DHT22;32190;49.112;8.598;2022-09-20T02:49:28;15.20;58.90
32147;DHT22;32190;49.112;8.598;2022-09-20T02:55:35;15.20;59.50
32147;DHT22;32190;49.112;8.598;2022-09-20T03:02:05;15.20;58.80
32147;DHT22;32190;49.112;8.598;2022-09-20T03:08:25;15.20;58.60
32147;DHT22;32190;49.112;8.598;2022-09-20T03:39:49;15.20;58.30
32147;DHT22;32190;49.112;8.598;2022-09-20T03:45:56;15.10;58.20
32147;DHT22;32190;49.112;8.598;2022-09-20T04:29:50;14.70;58.10
32147;DHT22;32190;49.112;8.598;2022-09-20T04:36:18;14.70;58.20
32147;DHT22;32190;49.112;8.598;2022-09-20T05:25:28;14.50;58.30
32147;DHT22;32190;49.112;8.598;2022-09-20T05:43:39;14.50;57.90
32147;DHT22;32190;49.112;8.598;2022-09-20T05:49:56;14.50;58.10
32147;DHT22;32190;49.112;8.598;2022-09-20T05:56:04;14.40;58.40
32147;DHT22;32190;49.112;8.598;2022-09-20T06:02:23;14.40;58.50
32147;DHT22;32190;49.112;8.598;2022-09-20T06:33:55;14.40;58.90
32147;DHT22;32190;49.112;8.598;2022-09-20T07:06:01;14.70;59.20
32147;DHT22;32190;49.112;8.598;2022-09-20T07:31:49;15.10;59.00
32147;DHT22;32190;49.112;8.598;2022-09-20T07:37:40;15.30;59.30
32147;DHT22;32190;49.112;8.598;2022-09-20T07:43:31;15.40;59.30
32147;DHT22;32190;49.112;8.598;2022-09-20T07:49:23;15.60;59.20
32147;DHT22;32190;49.112;8.598;2022-09-20T07:55:24;15.70;59.20
32147;DHT22;32190;49.112;8.598;2022-09-20T08:01:15;15.80;59.00
32147;DHT22;32190;49.112;8.598;2022-09-20T08:07:05;16.00;58.90
32147;DHT22;32190;49.112;8.598;2022-09-20T08:12:58;16.00;58.80
32147;DHT22;32190;49.112;8.598;2022-09-20T08:19:00;16.10;58.60
32147;DHT22;32190;49.112;8.598;2022-09-20T08:24:51;16.20;58.50
32147;DHT22;32190;49.112;8.598;2022-09-20T08:30:43;16.40;58.30
32147;DHT22;32190;49.112;8.598;2022-09-20T08:36:41;16.40;58.00
32147;DHT22;32190;49.112;8.598;2022-09-20T08:42:41;16.60;58.10
32147;DHT22;32190;49.112;8.598;2022-09-20T08:48:37;16.60;57.80
32147;DHT22;32190;49.112;8.598;2022-09-20T08:54:31;16.70;57.40
32147;DHT22;32190;49.112;8.598;2022-09-20T09:00:27;16.80;57.70
32147;DHT22;32190;49.112;8.598;2022-09-20T09:13:23;16.90;57.10
32147;DHT22;32190;49.112;8.598;2022-09-20T09:19:29;17.00;56.70
32147;DHT22;32190;49.112;8.598;2022-09-20T09:25:23;17.10;56.70
32147;DHT22;32190;49.112;8.598;2022-09-20T09:31:24;17.10;56.70
32147;DHT22;32190;49.112;8.598;2022-09-20T09:37:27;17.20;56.30
32147;DHT22;32190;49.112;8.598;2022-09-20T09:43:29;17.20;56.10
32147;DHT22;32190;49.112;8.598;2022-09-20T09:49:24;17.30;55.40
32147;DHT22;32190;49.112;8.598;2022-09-20T09:55:16;17.30;55.10
32147;DHT22;32190;49.112;8.598;2022-09-20T10:13:38;17.60;54.70
32147;DHT22;32190;49.112;8.598;2022-09-20T10:19:54;17.70;53.80
32147;DHT22;32190;49.112;8.598;2022-09-20T10:39:30;18.20;53.20
32147;DHT22;32190;49.112;8.598;2022-09-20T11:10:47;18.40;51.10
32147;DHT22;32190;49.112;8.598;2022-09-20T11:16:56;18.40;51.00
32147;DHT22;32190;49.112;8.598;2022-09-20T11:22:59;18.50;52.20
32147;DHT22;32190;49.112;8.598;2022-09-20T11:28:54;18.50;51.20
32147;DHT22;32190;49.112;8.598;2022-09-20T11:40:57;18.70;52.30
32147;DHT22;32190;49.112;8.598;2022-09-20T11:59:05;18.90;50.00
32147;DHT22;32190;49.112;8.598;2022-09-20T12:04:56;18.90;49.90
32147;DHT22;32190;49.112;8.598;2022-09-20T12:10:57;18.70;50.80
32147;DHT22;32190;49.112;8.598;2022-09-20T12:16:49;18.60;51.70
32147;DHT22;32190;49.112;8.598;2022-09-20T12:22:40;18.60;52.70
32147;DHT22;32190;49.112;8.598;2022-09-20T12:28:36;18.50;52.70
32147;DHT22;32190;49.112;8.598;2022-09-20T12:34:35;18.10;53.50
32147;DHT22;32190;49.112;8.598;2022-09-20T12:40:26;17.90;54.00
32147;DHT22;32190;49.112;8.598;2022-09-20T12:46:37;17.70;54.40
32147;DHT22;32190;49.112;8.598;2022-09-20T12:58:51;17.80;55.70
32147;DHT22;32190;49.112;8.598;2022-09-20T13:04:54;17.90;56.30
32147;DHT22;32190;49.112;8.598;2022-09-20T13:11:22;18.00;57.00
32147;DHT22;32190;49.112;8.598;2022-09-20T13:17:28;18.10;56.30
32147;DHT22;32190;49.112;8.598;2022-09-20T13:23:25;18.10;56.10
32147;DHT22;32190;49.112;8.598;2022-09-20T13:29:40;18.20;56.10
32147;DHT22;32190;49.112;8.598;2022-09-20T13:35:40;18.30;56.10
32147;DHT22;32190;49.112;8.598;2022-09-20T13:41:31;18.50;55.90
32147;DHT22;32190;49.112;8.598;2022-09-20T13:47:30;18.60;55.70
32147;DHT22;32190;49.112;8.598;2022-09-20T13:53:22;18.70;55.50
32147;DHT22;32190;49.112;8.598;2022-09-20T13:59:14;18.90;55.30
32147;DHT22;32190;49.112;8.598;2022-09-20T14:05:15;19.00;55.10
32147;DHT22;32190;49.112;8.598;2022-09-20T14:11:18;19.10;54.80
32147;DHT22;32190;49.112;8.598;2022-09-20T14:17:15;19.30;53.70
32147;DHT22;32190;49.112;8.598;2022-09-20T14:23:25;19.40;53.90
32147;DHT22;32190;49.112;8.598;2022-09-20T14:29:37;19.50;52.40
32147;DHT22;32190;49.112;8.598;2022-09-20T14:35:29;19.50;53.10
32147;DHT22;32190;49.112;8.598;2022-09-20T14:41:40;19.50;52.80
32147;DHT22;32190;49.112;8.598;2022-09-20T14:47:36;19.40;53.40
32147;DHT22;32190;49.112;8.598;2022-09-20T14:53:27;19.30;53.60
32147;DHT22;32190;49.112;8.598;2022-09-20T15:05:24;19.40;53.30
32147;DHT22;32190;49.112;8.598;2022-09-20T15:11:17;19.50;51.30
32147;DHT22;32190;49.112;8.598;2022-09-20T15:17:20;19.50;52.20
32147;DHT22;32190;49.112;8.598;2022-09-20T15:23:14;19.40;50.70
32147;DHT22;32190;49.112;8.598;2022-09-20T15:29:07;19.40;50.90
32147;DHT22;32190;49.112;8.598;2022-09-20T15:41:41;19.30;50.10
32147;DHT22;32190;49.112;8.598;2022-09-20T15:47:36;19.30;50.30
32147;DHT22;32190;49.112;8.598;2022-09-20T15:53:33;19.30;49.60
32147;DHT22;32190;49.112;8.598;2022-09-20T15:59:24;19.20;49.50
32147;DHT22;32190;49.112;8.598;2022-09-20T16:05:15;19.20;49.60
32147;DHT22;32190;49.112;8.598;2022-09-20T16:11:07;19.20;49.70
32147;DHT22;32190;49.112;8.598;2022-09-20T16:16:58;19.20;49.60
32147;DHT22;32190;49.112;8.598;2022-09-20T16:22:49;19.20;49.60
32147;DHT22;32190;49.112;8.598;2022-09-20T16:28:40;19.20;49.60
32147;DHT22;32190;49.112;8.598;2022-09-20T16:34:35;19.10;49.30
32147;DHT22;32190;49.112;8.598;2022-09-20T16:40:26;19.00;48.60
32147;DHT22;32190;49.112;8.598;2022-09-20T16:46:21;18.90;49.20
32147;DHT22;32190;49.112;8.598;2022-09-20T16:52:14;18.90;48.90
32147;DHT22;32190;49.112;8.598;2022-09-20T16:58:05;18.90;49.60
32147;DHT22;32190;49.112;8.598;2022-09-20T17:03:58;18.90;49.90
32147;DHT22;32190;49.112;8.598;2022-09-20T17:09:49;18.90;50.00
32147;DHT22;32190;49.112;8.598;2022-09-20T17:15:40;18.90;50.40
32147;DHT22;32190;49.112;8.598;2022-09-20T17:21:31;18.90;50.80
32147;DHT22;32190;49.112;8.598;2022-09-20T17:27:22;18.80;50.90
32147;DHT22;32190;49.112;8.598;2022-09-20T17:33:13;18.80;51.00
32147;DHT22;32190;49.112;8.598;2022-09-20T17:39:05;18.80;51.30
32147;DHT22;32190;49.112;8.598;2022-09-20T17:44:55;18.80;51.40
32147;DHT22;32190;49.112;8.598;2022-09-20T17:50:56;18.70;51.60
32147;DHT22;32190;49.112;8.598;2022-09-20T17:56:49;18.60;51.60
32147;DHT22;32190;49.112;8.598;2022-09-20T18:02:39;18.60;51.60
32147;DHT22;32190;49.112;8.598;2022-09-20T18:08:32;18.50;51.80
32147;DHT22;32190;49.112;8.598;2022-09-20T18:14:26;18.40;51.70
32147;DHT22;32190;49.112;8.598;2022-09-20T18:20:16;18.30;52.20
32147;DHT22;32190;49.112;8.598;2022-09-20T18:26:09;18.20;52.40
32147;DHT22;32190;49.112;8.598;2022-09-20T18:32:11;18.10;52.60
32147;DHT22;32190;49.112;8.598;2022-09-20T18:38:02;18.10;52.80
32147;DHT22;32190;49.112;8.598;2022-09-20T18:43:54;18.00;52.80
32147;DHT22;32190;49.112;8.598;2022-09-20T18:49:45;18.00;52.90
32147;DHT22;32190;49.112;8.598;2022-09-20T18:55:39;17.90;52.60
32147;DHT22;32190;49.112;8.598;2022-09-20T19:13:45;17.60;53.10
32147;DHT22;32190;49.112;8.598;2022-09-20T19:19:53;17.50;53.40
32147;DHT22;32190;49.112;8.598;2022-09-20T19:25:46;17.50;53.60
32147;DHT22;32190;49.112;8.598;2022-09-20T19:31:37;17.50;53.50
32147;DHT22;32190;49.112;8.598;2022-09-20T19:37:47;17.40;53.50
32147;DHT22;32190;49.112;8.598;2022-09-20T19:50:06;17.30;53.60
32147;DHT22;32190;49.112;8.598;2022-09-20T19:56:19;17.20;53.80
32147;DHT22;32190;49.112;8.598;2022-09-20T20:02:12;17.10;53.90
32147;DHT22;32190;49.112;8.598;2022-09-20T20:08:40;17.10;53.70
32147;DHT22;32190;49.112;8.598;2022-09-20T20:20:34;16.90;53.80
32147;DHT22;32190;49.112;8.598;2022-09-20T20:26:32;16.90;53.90
32147;DHT22;32190;49.112;8.598;2022-09-20T20:32:25;16.80;54.10
32147;DHT22;32190;49.112;8.598;2022-09-20T20:38:19;16.70;54.20
32147;DHT22;32190;49.112;8.598;2022-09-20T20:44:15;16.70;54.10
32147;DHT22;32190;49.112;8.598;2022-09-20T20:50:07;16.60;54.10
32147;DHT22;32190;49.112;8.598;2022-09-20T20:56:11;16.50;54.20
32147;DHT22;32190;49.112;8.598;2022-09-20T21:02:07;16.30;54.00
32147;DHT22;32190;49.112;8.598;2022-09-20T21:08:00;16.10;54.10
32147;DHT22;32190;49.112;8.598;2022-09-20T21:13:54;15.90;54.40
32147;DHT22;32190;49.112;8.598;2022-09-20T21:19:45;15.70;54.70
32147;DHT22;32190;49.112;8.598;2022-09-20T21:25:35;15.50;54.90
32147;DHT22;32190;49.112;8.598;2022-09-20T21:31:29;15.40;55.00
32147;DHT22;32190;49.112;8.598;2022-09-20T21:37:25;15.30;55.40
32147;DHT22;32190;49.112;8.598;2022-09-20T21:43:18;15.30;55.70
32147;DHT22;32190;49.112;8.598;2022-09-20T21:49:17;15.40;55.60
32147;DHT22;32190;49.112;8.598;2022-09-20T21:55:08;15.50;55.50
32147;DHT22;32190;49.112;8.598;2022-09-20T22:01:04;15.50;55.00
32147;DHT22;32190;49.112;8.598;2022-09-20T22:06:58;15.50;55.30
32147;DHT22;32190;49.112;8.598;2022-09-20T22:12:51;15.60;55.60
32147;DHT22;32190;49.112;8.598;2022-09-20T22:18:42;15.60;55.50
32147;DHT22;32190;49.112;8.598;2022-09-20T22:24:39;15.60;55.50
32147;DHT22;32190;49.112;8.598;2022-09-20T22:30:30;15.60;55.30
32147;DHT22;32190;49.112;8.598;2022-09-20T22:36:31;15.70;55.30
32147;DHT22;32190;49.112;8.598;2022-09-20T22:42:23;15.70;55.30
32147;DHT22;32190;49.112;8.598;2022-09-20T22:48:14;15.80;54.80
32147;DHT22;32190;49.112;8.598;2022-09-20T22:54:07;15.60;54.50
32147;DHT22;32190;49.112;8.598;2022-09-20T23:00:08;15.40;54.60
32147;DHT22;32190;49.112;8.598;2022-09-20T23:05:59;15.30;55.00
32147;DHT22;32190;49.112;8.598;2022-09-20T23:11:50;15.30;55.20
32147;DHT22;32190;49.112;8.598;2022-09-20T23:17:47;15.20;55.20
32147;DHT22;32190;49.112;8.598;2022-09-20T23:23:41;15.30;55.10
32147;DHT22;32190;49.112;8.598;2022-09-20T23:29:34;15.20;54.90
32147;DHT22;32190;49.112;8.598;2022-09-20T23:35:25;15.20;54.80
32147;DHT22;32190;49.112;8.598;2022-09-20T23:41:19;15.10;54.90
32147;DHT22;32190;49.112;8.598;2022-09-20T23:47:10;15.10;55.00
32147;DHT22;32190;49.112;8.598;2022-09-20T23:53:04;15.00;55.10
32147;DHT22;32190;49.112;8.598;2022-09-20T23:59:03;15.00;55.00
